Time;durP1;ratioP1;P1;durP2;ratioP2;P2;SDS_P1;SDS_P2;PMS_P1;PMS_P2;Temp;Humidity;BMP_temperature;BMP_pressure;BME280_temperature;BME280_humidity;BME280_pressure;Samples;Min_cycle;Max_cycle;Signal;HPM_P1;HPM_P2
2024/01/30 00:01:38;;;;;;;46.33;22.45;;;;;;;4.09;70.68;102904.94;5067735;28;20036;-77
2024/01/30 00:04:04;;;;;;;46.80;21.85;;;;;;;3.92;71.14;102883.94;5068551;28;20029;-74
2024/01/30 00:06:29;;;;;;;38.53;22.40;;;;;;;3.99;71.45;102898.91;5068830;28;20043;-75
2024/01/30 00:08:55;;;;;;;44.25;22.63;;;;;;;3.90;71.59;102885.75;5068563;28;20392;-74
2024/01/30 00:11:21;;;;;;;37.17;20.05;;;;;;;3.94;71.55;102879.47;5068896;28;20106;-75
2024/01/30 00:13:46;;;;;;;42.20;22.45;;;;;;;3.73;71.82;102853.25;5075996;28;20040;-76
2024/01/30 00:16:22;;;;;;;40.17;22.30;;;;;;;3.94;72.22;102898.09;5072657;28;20028;-74
2024/01/30 00:18:48;;;;;;;37.63;22.13;;;;;;;3.94;72.28;102903.44;5067574;28;20032;-75
2024/01/30 00:21:14;;;;;;;43.28;23.05;;;;;;;3.90;72.29;102920.34;5067301;28;20032;-74
2024/01/30 00:23:39;;;;;;;39.47;22.40;;;;;;;3.72;72.35;102880.75;5028184;28;20072;-74
2024/01/30 00:26:05;;;;;;;40.08;22.90;;;;;;;3.73;72.75;102882.50;5063352;28;20097;-76
2024/01/30 00:28:31;;;;;;;39.88;21.38;;;;;;;3.86;72.81;102915.97;5067147;28;20031;-76
2024/01/30 00:30:56;;;;;;;45.33;24.75;;;;;;;3.76;73.26;102895.78;5067086;28;20100;-77
2024/01/30 00:33:22;;;;;;;48.47;25.38;;;;;;;3.89;73.21;102907.94;5067039;28;20480;-75
2024/01/30 00:35:47;;;;;;;38.95;23.08;;;;;;;3.87;73.38;102914.19;5074891;28;20090;-76
2024/01/30 00:38:13;;;;;;;41.00;22.88;;;;;;;3.95;72.94;102894.53;5086681;28;20431;-74
2024/01/30 00:40:38;;;;;;;38.83;22.70;;;;;;;3.95;73.34;102902.50;5051648;28;20028;-74
2024/01/30 00:43:04;;;;;;;41.30;22.08;;;;;;;4.08;73.33;102906.72;5088519;28;20043;-79
2024/01/30 00:45:29;;;;;;;46.65;24.73;;;;;;;3.93;72.74;102891.03;5091350;28;20085;-78
2024/01/30 00:47:55;;;;;;;42.38;22.15;;;;;;;4.05;72.82;102912.09;5091413;28;20392;-74
2024/01/30 00:50:20;;;;;;;44.40;22.35;;;;;;;4.03;73.24;102903.28;5091755;28;20031;-73
2024/01/30 00:52:46;;;;;;;36.80;22.63;;;;;;;4.01;73.29;102913.03;5091765;28;20128;-74
2024/01/30 00:55:11;;;;;;;40.20;21.40;;;;;;;4.03;73.22;102908.59;5092321;28;20119;-75
2024/01/30 00:57:37;;;;;;;48.60;23.98;;;;;;;4.02;73.33;102909.50;5090261;28;20041;-74
2024/01/30 01:00:03;;;;;;;45.55;22.83;;;;;;;4.01;73.78;102918.38;5092579;28;20034;-76
2024/01/30 01:02:29;;;;;;;43.15;23.33;;;;;;;3.97;74.06;102911.38;5100507;28;20046;-75
2024/01/30 01:04:54;;;;;;;45.67;22.67;;;;;;;3.97;74.23;102910.47;5095236;28;20051;-75
2024/01/30 01:07:20;;;;;;;43.00;22.95;;;;;;;3.89;74.33;102883.97;5090627;28;20516;-76
2024/01/30 01:09:45;;;;;;;47.95;24.15;;;;;;;3.98;74.23;102902.44;5090924;28;20472;-75
2024/01/30 01:12:10;;;;;;;38.00;22.15;;;;;;;3.91;74.40;102899.94;5090076;28;20090;-75
2024/01/30 01:14:37;;;;;;;45.72;23.42;;;;;;;3.74;74.23;102874.47;5090839;28;20031;-74
2024/01/30 01:17:02;;;;;;;37.25;21.48;;;;;;;3.88;74.32;102905.31;5090629;28;20359;-76
2024/01/30 01:19:28;;;;;;;46.35;24.15;;;;;;;3.82;74.94;102908.97;5090719;28;20024;-77
2024/01/30 01:21:53;;;;;;;44.00;21.67;;;;;;;3.79;74.85;102867.28;5089995;28;20526;-78
2024/01/30 01:24:19;;;;;;;42.10;24.38;;;;;;;3.92;74.66;102896.34;5088357;28;20032;-77
2024/01/30 01:26:44;;;;;;;47.58;24.70;;;;;;;3.81;74.68;102873.47;5090130;28;20034;-73
2024/01/30 01:29:11;;;;;;;44.15;24.05;;;;;;;3.99;74.71;102885.59;5090672;28;20020;-76
2024/01/30 01:31:44;;;;;;;40.25;23.15;;;;;;;4.00;74.61;102878.47;5090113;28;20072;-74
2024/01/30 01:34:10;;;;;;;44.13;22.63;;;;;;;4.05;74.61;102877.47;5090241;28;20336;-77
2024/01/30 01:36:36;;;;;;;42.53;23.38;;;;;;;4.07;74.19;102882.75;5089118;28;20059;-75
2024/01/30 01:39:02;;;;;;;40.22;22.60;;;;;;;4.05;74.20;102885.47;5089283;28;20020;-76
2024/01/30 01:41:34;;;;;;;41.58;23.95;;;;;;;3.80;74.06;102849.53;5089138;28;20024;-73
2024/01/30 01:44:00;;;;;;;40.65;22.98;;;;;;;3.87;74.10;102855.63;5090243;28;20031;-76
2024/01/30 01:46:33;;;;;;;50.40;24.27;;;;;;;3.87;73.83;102871.59;5090003;28;20506;-74
2024/01/30 01:49:00;;;;;;;42.47;21.80;;;;;;;3.84;74.16;102876.09;5075824;28;20024;-75
2024/01/30 01:51:27;;;;;;;41.65;22.15;;;;;;;3.92;74.40;102870.63;5098184;28;20071;-74
2024/01/30 01:53:54;;;;;;;39.05;21.73;;;;;;;3.93;74.08;102891.03;5094171;28;20035;-75
2024/01/30 01:56:21;;;;;;;41.65;22.92;;;;;;;3.87;74.19;102892.91;5088372;28;20410;-74
2024/01/30 01:58:49;;;;;;;40.67;22.77;;;;;;;3.69;74.55;102864.84;5062299;28;20100;-74
2024/01/30 02:01:18;;;;;;;46.53;22.05;;;;;;;3.82;74.29;102893.00;5068491;28;20029;-76
2024/01/30 02:03:45;;;;;;;44.17;23.50;;;;;;;3.81;74.36;102899.22;5088378;28;20090;-73
2024/01/30 02:06:10;;;;;;;40.10;23.33;;;;;;;3.70;73.96;102886.06;5088366;28;20028;-76
2024/01/30 02:08:38;;;;;;;41.05;22.13;;;;;;;3.76;74.30;102879.81;5088510;28;20152;-74
2024/01/30 02:11:03;;;;;;;41.38;21.60;;;;;;;3.80;74.43;102897.44;5088331;28;20024;-77
2024/01/30 02:13:29;;;;;;;45.17;20.98;;;;;;;3.77;74.68;102886.84;5088340;28;20038;-75
2024/01/30 02:15:55;;;;;;;48.35;22.55;;;;;;;3.75;74.33;102884.25;5088328;28;20727;-74
2024/01/30 02:18:23;;;;;;;46.20;22.60;;;;;;;3.65;74.78;102871.09;5088609;28;20459;-74
2024/01/30 02:20:52;;;;;;;45.20;24.42;;;;;;;3.78;74.92;102896.59;5088221;28;20024;-75
2024/01/30 02:23:19;;;;;;;42.92;23.75;;;;;;;3.61;74.70;102864.06;5088013;28;20059;-73
2024/01/30 02:25:45;;;;;;;38.30;20.65;;;;;;;3.74;74.67;102892.22;5088697;28;20082;-79
2024/01/30 02:28:13;;;;;;;47.72;23.63;;;;;;;3.72;74.72;102905.59;5076769;28;20024;-76
2024/01/30 02:30:40;;;;;;;44.90;22.20;;;;;;;3.76;74.77;102887.78;5088976;28;20089;-74
2024/01/30 02:33:05;;;;;;;45.08;24.08;;;;;;;3.76;74.88;102898.44;5070130;28;20094;-77
2024/01/30 02:35:31;;;;;;;46.88;21.50;;;;;;;3.71;74.86;102882.53;5029506;28;1309885;-76
2024/01/30 02:37:56;;;;;;;36.92;21.33;;;;;;;3.79;74.67;102895.72;5093303;28;20039;-75
2024/01/30 02:40:22;;;;;;;44.33;23.75;;;;;;;3.80;74.79;102882.38;5097668;28;20042;-74
2024/01/30 02:42:48;;;;;;;41.25;21.17;;;;;;;3.86;74.29;102878.72;5092464;28;20435;-74
2024/01/30 02:45:13;;;;;;;45.45;21.27;;;;;;;3.70;74.69;102879.91;5088580;28;20031;-75
2024/01/30 02:47:40;;;;;;;42.33;22.40;;;;;;;3.63;75.11;102868.47;5070630;28;20118;-75
2024/01/30 02:50:06;;;;;;;41.72;22.52;;;;;;;3.72;75.33;102907.38;5088439;28;20028;-74
2024/01/30 02:52:32;;;;;;;42.42;23.13;;;;;;;3.79;75.08;102903.69;5087991;28;20062;-76
2024/01/30 02:54:58;;;;;;;40.28;21.92;;;;;;;3.79;75.36;102909.03;5087867;28;20507;-76
2024/01/30 02:57:23;;;;;;;43.83;23.50;;;;;;;3.72;75.96;102899.38;5088300;28;20036;-76
2024/01/30 02:59:49;;;;;;;44.55;23.70;;;;;;;3.70;75.84;102895.88;5088320;28;20047;-75
2024/01/30 03:02:14;;;;;;;45.25;23.48;;;;;;;3.76;75.95;102907.25;5070314;28;20050;-76
2024/01/30 03:04:43;;;;;;;39.47;21.23;;;;;;;3.76;75.73;102901.09;5077700;28;20040;-77
2024/01/30 03:07:09;;;;;;;40.05;21.13;;;;;;;3.83;75.52;102914.25;5082390;28;20020;-75
2024/01/30 03:09:35;;;;;;;39.20;22.27;;;;;;;3.89;75.46;102912.38;5088171;28;20567;-75
2024/01/30 03:12:00;;;;;;;42.03;23.92;;;;;;;3.82;76.03;102908.97;5081287;28;20027;-79
2024/01/30 03:14:26;;;;;;;43.33;24.27;;;;;;;3.78;76.90;102904.59;5097823;28;20795;-75
2024/01/30 03:16:52;;;;;;;48.25;23.25;;;;;;;3.78;77.25;102904.59;5088540;28;20476;-78
2024/01/30 03:19:18;;;;;;;49.45;24.73;;;;;;;3.71;77.04;102876.31;5080376;28;20470;-79
2024/01/30 03:21:44;;;;;;;41.35;23.33;;;;;;;3.79;76.66;102890.41;5063925;28;20020;-75
2024/01/30 03:24:09;;;;;;;43.85;23.30;;;;;;;3.65;76.87;102877.31;5088127;28;20047;-75
2024/01/30 03:26:35;;;;;;;40.00;21.85;;;;;;;3.69;77.02;102891.44;5090365;28;20042;-74
2024/01/30 03:29:01;;;;;;;38.80;21.98;;;;;;;3.71;77.13;102902.94;5079188;28;20473;-77
2024/01/30 03:31:26;;;;;;;44.70;22.05;;;;;;;3.74;77.11;102892.22;5089528;28;20126;-75
2024/01/30 03:33:52;;;;;;;47.15;23.35;;;;;;;3.74;77.49;102902.88;5087456;28;20502;-74
2024/01/30 03:36:18;;;;;;;47.60;24.27;;;;;;;3.70;77.15;102885.22;5076017;28;20052;-76
2024/01/30 03:38:43;;;;;;;44.20;23.67;;;;;;;3.58;77.56;102885.41;5088121;28;20032;-75
2024/01/30 03:41:09;;;;;;;38.88;22.48;;;;;;;3.65;77.43;102885.28;5087998;28;20038;-74
2024/01/30 03:43:35;;;;;;;44.58;22.63;;;;;;;3.68;77.10;102887.00;5079582;28;20059;-75
2024/01/30 03:46:01;;;;;;;43.65;22.67;;;;;;;3.55;77.53;102875.69;5087721;28;20071;-76
2024/01/30 03:48:27;;;;;;;45.80;22.60;;;;;;;3.62;77.18;102892.44;5087859;28;20081;-75
2024/01/30 03:50:52;;;;;;;42.75;22.08;;;;;;;3.61;77.38;102886.22;5087648;28;20036;-74
2024/01/30 03:53:18;;;;;;;44.90;23.10;;;;;;;3.54;77.07;102851.78;5087729;28;20531;-74
2024/01/30 03:55:43;;;;;;;44.08;22.30;;;;;;;3.65;77.03;102884.41;5087733;28;20119;-75
2024/01/30 03:58:09;;;;;;;38.90;22.63;;;;;;;3.62;76.68;102880.03;5087776;28;20024;-74
2024/01/30 04:00:35;;;;;;;39.38;20.70;;;;;;;3.54;76.59;102867.75;5087762;28;20468;-76
2024/01/30 04:03:00;;;;;;;44.40;22.05;;;;;;;3.39;76.87;102858.25;5069938;28;20031;-78
2024/01/30 04:05:26;;;;;;;48.60;21.20;;;;;;;3.42;76.71;102873.28;5069998;28;20040;-75
2024/01/30 04:07:51;;;;;;;43.08;23.05;;;;;;;3.58;76.93;102898.72;5088010;28;20103;-75
2024/01/30 04:10:17;;;;;;;43.55;21.88;;;;;;;3.54;76.92;102894.34;5089290;28;20475;-76
2024/01/30 04:12:42;;;;;;;39.42;22.08;;;;;;;3.41;77.22;102856.44;5088924;28;20017;-75
2024/01/30 04:15:08;;;;;;;49.22;22.92;;;;;;;3.62;76.81;102900.41;5093630;28;20019;-75
2024/01/30 04:17:34;;;;;;;51.35;25.92;;;;;;;3.59;76.88;102887.16;5099078;28;20053;-75
2024/01/30 04:20:00;;;;;;;47.33;25.08;;;;;;;3.58;76.66;102888.94;5080534;28;20028;-74
2024/01/30 04:22:25;;;;;;;46.47;23.20;;;;;;;3.60;76.40;102895.16;5091094;28;20027;-77
2024/01/30 04:24:51;;;;;;;43.45;22.15;;;;;;;3.57;76.31;102889.00;5106074;28;20554;-77
2024/01/30 04:27:16;;;;;;;41.03;20.92;;;;;;;3.66;76.36;102884.41;5087045;28;20028;-79
2024/01/30 04:29:42;;;;;;;43.63;21.85;;;;;;;3.69;76.07;102904.75;5087883;28;20035;-75
2024/01/30 04:32:09;;;;;;;45.65;22.33;;;;;;;3.72;76.03;102894.06;5067268;28;20032;-75
2024/01/30 04:34:35;;;;;;;41.85;20.08;;;;;;;3.78;76.31;102892.16;5067045;28;20033;-74
2024/01/30 04:37:01;;;;;;;36.70;20.73;;;;;;;3.83;75.45;102897.41;5086602;28;20055;-75
2024/01/30 04:39:27;;;;;;;37.65;21.77;;;;;;;3.84;75.15;102894.72;5087940;28;20032;-76
2024/01/30 04:41:52;;;;;;;36.42;20.45;;;;;;;3.74;75.26;102881.59;5051545;28;20522;-74
2024/01/30 04:44:18;;;;;;;36.42;19.50;;;;;;;3.82;75.22;102915.16;5087646;28;20024;-76
2024/01/30 04:46:43;;;;;;;44.28;21.10;;;;;;;3.70;75.34;102890.56;5087193;28;20030;-76
2024/01/30 04:49:09;;;;;;;35.78;18.90;;;;;;;3.77;75.21;102916.13;5087352;28;20042;-76
2024/01/30 04:51:34;;;;;;;38.63;21.02;;;;;;;3.65;75.40;102903.03;5065248;28;20769;-79
2024/01/30 04:54:00;;;;;;;36.85;21.30;;;;;;;3.73;75.37;102911.78;5086890;28;20034;-76
2024/01/30 04:56:25;;;;;;;45.47;21.33;;;;;;;3.70;75.47;102903.84;5077202;28;20040;-75
2024/01/30 04:58:50;;;;;;;43.75;21.08;;;;;;;3.71;75.50;102908.25;5074602;28;20576;-78
2024/01/30 05:01:17;;;;;;;40.80;21.98;;;;;;;3.56;75.50;102879.25;5085880;28;20028;-77
2024/01/30 05:03:42;;;;;;;37.30;20.65;;;;;;;3.63;75.41;102899.53;5095233;28;20089;-74
2024/01/30 05:06:08;;;;;;;42.13;22.33;;;;;;;3.59;75.45;102882.72;5084681;28;20028;-78
2024/01/30 05:08:36;;;;;;;35.83;20.02;;;;;;;3.71;75.79;102882.53;5081484;28;20039;-79
2024/01/30 05:11:03;;;;;;;39.30;19.92;;;;;;;3.66;75.27;102878.19;5086869;28;20131;-75
2024/01/30 05:13:30;;;;;;;41.08;20.52;;;;;;;3.59;75.33;102889.81;5070703;28;20039;-76
2024/01/30 05:15:56;;;;;;;40.00;20.75;;;;;;;3.57;75.62;102899.63;5086461;28;20017;-77
2024/01/30 05:18:21;;;;;;;43.88;20.40;;;;;;;3.47;75.56;102890.03;5049892;28;20149;-75
2024/01/30 05:20:47;;;;;;;49.08;22.92;;;;;;;3.49;75.62;102875.78;5070675;28;20090;-76
2024/01/30 05:23:12;;;;;;;44.47;20.95;;;;;;;3.64;75.73;102901.28;5098079;28;20043;-74
2024/01/30 05:25:38;;;;;;;43.75;20.88;;;;;;;3.75;75.46;102896.66;5101866;28;20035;-76
2024/01/30 05:28:04;;;;;;;45.67;20.60;;;;;;;3.70;74.93;102902.03;5053502;28;20032;-77
2024/01/30 05:30:29;;;;;;;43.25;20.52;;;;;;;3.67;75.49;102918.06;5090056;28;20047;-73
2024/01/30 05:32:55;;;;;;;41.63;20.60;;;;;;;3.63;75.25;102900.41;5089956;28;20743;-72
2024/01/30 05:35:21;;;;;;;41.45;20.77;;;;;;;3.55;75.33;102881.00;5074698;28;20143;-75
2024/01/30 05:37:48;;;;;;;38.88;21.13;;;;;;;3.73;74.98;102907.31;5053818;28;20082;-77
2024/01/30 05:40:14;;;;;;;46.97;20.83;;;;;;;3.82;74.83;102911.63;5089906;28;20031;-75
2024/01/30 05:42:39;;;;;;;40.28;20.85;;;;;;;3.82;75.08;102907.16;5086862;28;20035;-76
2024/01/30 05:45:05;;;;;;;43.35;21.20;;;;;;;3.90;75.03;102927.47;5112416;28;20024;-75
2024/01/30 05:47:31;;;;;;;38.50;19.63;;;;;;;3.78;74.50;102896.59;5094518;28;20047;-76
2024/01/30 05:49:56;;;;;;;39.10;20.85;;;;;;;3.95;74.05;102923.81;5097468;28;20059;-79
2024/01/30 05:52:22;;;;;;;45.40;19.55;;;;;;;3.89;74.07;102933.69;5099063;28;20028;-76
2024/01/30 05:54:47;;;;;;;39.03;19.10;;;;;;;3.84;74.21;102913.34;5090287;28;20094;-78
2024/01/30 05:57:13;;;;;;;42.10;20.85;;;;;;;3.94;73.82;102923.84;5082837;28;20047;-76
2024/01/30 05:59:38;;;;;;;36.67;19.63;;;;;;;3.96;74.05;102928.22;5088893;28;20403;-75
2024/01/30 06:02:04;;;;;;;34.78;18.77;;;;;;;4.04;74.61;102934.28;5073830;28;20023;-76
2024/01/30 06:04:30;;;;;;;39.97;18.52;;;;;;;4.09;74.19;102932.44;5053384;28;20089;-75
2024/01/30 06:06:55;;;;;;;44.45;19.00;;;;;;;4.08;73.78;102941.34;5087067;28;20028;-78
2024/01/30 06:09:21;;;;;;;32.88;18.58;;;;;;;4.14;74.44;102951.00;5061436;28;20027;-75
2024/01/30 06:11:46;;;;;;;31.98;17.35;;;;;;;4.05;74.06;102930.72;5090088;28;20028;-73
2024/01/30 06:14:12;;;;;;;44.72;20.23;;;;;;;4.10;73.59;102970.59;5089690;28;20024;-74
2024/01/30 06:16:37;;;;;;;36.25;20.35;;;;;;;4.14;73.27;102977.63;5080129;28;20036;-75
2024/01/30 06:19:03;;;;;;;37.95;20.92;;;;;;;4.24;73.57;102993.44;5088967;28;20032;-74
2024/01/30 06:21:28;;;;;;;38.10;19.75;;;;;;;4.21;73.60;102980.16;5089397;28;20032;-74
2024/01/30 06:23:54;;;;;;;37.67;18.45;;;;;;;4.30;73.38;102985.34;5076271;28;20031;-74
2024/01/30 06:26:19;;;;;;;43.10;18.80;;;;;;;4.38;73.73;102974.53;5088982;28;20031;-75
2024/01/30 06:28:45;;;;;;;42.38;19.23;;;;;;;4.43;73.03;102969.13;5084453;28;20168;-79
2024/01/30 06:31:10;;;;;;;46.33;21.20;;;;;;;4.44;72.75;102970.84;5080535;28;20035;-74
2024/01/30 06:33:36;;;;;;;39.55;17.48;;;;;;;4.39;73.03;102969.19;5072586;28;20740;-74
2024/01/30 06:36:01;;;;;;;37.88;20.55;;;;;;;4.36;72.92;102953.25;5090098;28;20086;-71
2024/01/30 06:38:27;;;;;;;46.58;20.58;;;;;;;4.39;73.11;102968.31;5072463;28;20032;-73
2024/01/30 06:40:52;;;;;;;38.65;20.13;;;;;;;4.33;73.37;102949.75;5090498;28;20024;-72
2024/01/30 06:43:18;;;;;;;42.85;18.73;;;;;;;4.47;72.91;102976.13;5075937;28;20024;-78
2024/01/30 06:45:44;;;;;;;30.88;16.38;;;;;;;4.38;73.18;102967.41;5086159;28;20032;-73
2024/01/30 06:48:09;;;;;;;32.20;14.45;;;;;;;4.46;73.18;102969.06;5088908;28;20146;-73
2024/01/30 06:50:35;;;;;;;34.05;17.98;;;;;;;4.45;73.20;102964.63;5081837;28;20055;-79
2024/01/30 06:53:00;;;;;;;30.90;16.90;;;;;;;4.34;73.08;102955.03;5079073;28;20036;-73
2024/01/30 06:55:26;;;;;;;38.08;18.85;;;;;;;4.46;73.81;102958.41;5070697;28;21072;-73
2024/01/30 06:57:51;;;;;;;33.78;17.20;;;;;;;4.43;74.75;102963.78;5066980;28;20077;-80
2024/01/30 07:00:19;;;;;;;35.13;17.70;;;;;;;4.42;75.03;102965.56;5102483;28;20062;-80
2024/01/30 07:02:45;;;;;;;32.28;18.02;;;;;;;4.53;75.08;102957.38;5091927;28;20149;-76
2024/01/30 07:05:10;;;;;;;33.60;16.13;;;;;;;4.48;74.76;102968.13;5069155;28;20040;-78
2024/01/30 07:07:36;;;;;;;29.83;15.63;;;;;;;4.59;73.83;102989.22;5082405;28;20115;-75
2024/01/30 07:10:01;;;;;;;40.08;15.68;;;;;;;4.52;73.08;102971.63;5087983;28;20113;-74
2024/01/30 07:12:27;;;;;;;39.80;18.98;;;;;;;4.51;74.05;102989.38;5088269;28;20111;-75
2024/01/30 07:14:53;;;;;;;53.10;22.83;;;;;;;4.31;74.79;102970.22;5088427;28;20035;-76
2024/01/30 07:17:18;;;;;;;52.80;22.67;;;;;;;4.51;75.11;102993.81;5088557;28;20655;-73
2024/01/30 07:19:44;;;;;;;42.22;22.73;;;;;;;4.28;74.95;102939.19;5088876;28;20028;-73
2024/01/30 07:22:09;;;;;;;43.03;18.88;;;;;;;4.60;74.50;102991.00;5091747;28;20020;-76
2024/01/30 07:24:35;;;;;;;44.78;19.02;;;;;;;4.57;73.86;102964.41;5112030;28;20031;-75
2024/01/30 07:27:00;;;;;;;24.20;13.77;;;;;;;4.69;73.37;102985.47;5065521;28;20047;-80
2024/01/30 07:29:26;;;;;;;38.50;17.08;;;;;;;4.59;73.22;102976.78;5072093;28;20016;-75
2024/01/30 07:31:51;;;;;;;37.13;18.52;;;;;;;4.73;73.10;102977.41;5096192;28;20035;-74
2024/01/30 07:34:17;;;;;;;32.03;16.88;;;;;;;4.68;72.55;102970.44;5078209;28;20094;-81
2024/01/30 07:36:42;;;;;;;37.33;19.55;;;;;;;4.74;72.56;102975.63;5081581;28;20063;-74
2024/01/30 07:39:09;;;;;;;38.55;19.73;;;;;;;4.75;72.34;102977.38;5088220;28;20215;-73
2024/01/30 07:41:35;;;;;;;38.15;18.55;;;;;;;4.81;72.11;102982.56;5066881;28;20533;-77
2024/01/30 07:44:00;;;;;;;41.67;19.73;;;;;;;4.47;72.47;102925.50;5066737;28;20020;-74
2024/01/30 07:46:26;;;;;;;35.42;19.45;;;;;;;4.81;72.39;102987.91;5088622;28;20511;-74
2024/01/30 07:48:52;;;;;;;37.20;18.77;;;;;;;4.89;72.40;102994.00;5075208;28;20024;-81
2024/01/30 07:51:17;;;;;;;28.15;15.63;;;;;;;4.91;71.99;102986.81;5090780;28;20027;-72
2024/01/30 07:53:43;;;;;;;29.98;16.38;;;;;;;4.89;71.34;102970.00;5091897;28;20028;-74
2024/01/30 07:56:08;;;;;;;33.03;17.45;;;;;;;4.95;71.44;102980.53;5080035;28;20210;-78
2024/01/30 07:58:34;;;;;;;36.08;18.48;;;;;;;4.93;71.19;102977.00;5079752;28;20027;-74
2024/01/30 08:01:00;;;;;;;30.33;16.52;;;;;;;5.03;71.08;102978.56;5088932;28;20036;-75
2024/01/30 08:03:26;;;;;;;31.27;15.52;;;;;;;5.10;71.05;102980.22;5076541;28;20023;-78
2024/01/30 08:05:52;;;;;;;33.97;16.00;;;;;;;5.10;70.33;102974.88;5083791;28;20031;-75
2024/01/30 08:08:17;;;;;;;33.38;16.27;;;;;;;5.16;70.17;102981.84;5087728;28;20039;-74
2024/01/30 08:10:43;;;;;;;31.92;16.95;;;;;;;4.98;70.47;102943.13;5072418;28;20077;-74
2024/01/30 08:13:08;;;;;;;30.13;15.07;;;;;;;5.13;70.04;102948.13;5087876;28;20528;-72
2024/01/30 08:15:34;;;;;;;30.50;15.07;;;;;;;5.31;69.67;102955.72;5087947;28;20028;-75
2024/01/30 08:18:00;;;;;;;31.95;17.00;;;;;;;5.05;69.01;102906.50;5055280;28;20123;-76
2024/01/30 08:20:25;;;;;;;31.40;15.98;;;;;;;5.41;68.75;102961.75;5088047;28;20031;-75
2024/01/30 08:22:51;;;;;;;32.85;15.55;;;;;;;5.46;68.77;102979.41;5077648;28;20039;-78
2024/01/30 08:25:17;;;;;;;30.17;14.82;;;;;;;5.48;68.60;102966.00;5084045;28;20027;-75
2024/01/30 08:27:43;;;;;;;31.63;17.10;;;;;;;5.56;68.37;102964.06;5086218;28;20029;-76
2024/01/30 08:30:08;;;;;;;25.08;14.93;;;;;;;5.63;68.25;102965.66;5070557;28;20066;-72
2024/01/30 08:32:34;;;;;;;37.97;18.52;;;;;;;5.64;67.83;102971.88;5086205;28;20024;-73
2024/01/30 08:35:03;;;;;;;28.25;13.90;;;;;;;5.61;67.73;102966.59;5086342;28;20103;-74
2024/01/30 08:37:29;;;;;;;38.58;17.73;;;;;;;5.67;67.27;102983.34;5076474;28;20078;-79
2024/01/30 08:39:54;;;;;;;28.23;14.05;;;;;;;5.68;67.57;102989.56;5081990;28;20469;-75
2024/01/30 08:42:22;;;;;;;42.70;16.08;;;;;;;5.61;67.25;102995.97;5086795;28;20032;-73
2024/01/30 08:44:49;;;;;;;29.67;15.27;;;;;;;5.57;67.40;102981.81;5086650;28;20484;-77
2024/01/30 08:47:16;;;;;;;30.45;13.52;;;;;;;5.52;67.45;102990.84;5071672;28;20114;-77
2024/01/30 08:49:44;;;;;;;29.80;15.38;;;;;;;5.57;67.54;102995.16;5087146;28;20099;-76
2024/01/30 08:52:10;;;;;;;28.73;16.27;;;;;;;5.55;67.17;102974.75;5087540;28;20052;-74
2024/01/30 08:54:35;;;;;;;25.90;14.05;;;;;;;5.50;67.21;102981.06;5074490;28;20043;-74
2024/01/30 08:57:01;;;;;;;30.42;14.52;;;;;;;5.54;66.79;102979.19;5082512;28;20031;-73
2024/01/30 08:59:27;;;;;;;36.10;15.02;;;;;;;5.58;67.30;102978.22;5087573;28;20107;-74
2024/01/30 09:01:54;;;;;;;31.15;14.95;;;;;;;5.60;67.12;102965.72;5071711;28;20103;-74
2024/01/30 09:04:21;;;;;;;28.45;12.95;;;;;;;5.81;66.83;102988.38;5092743;28;20020;-74
2024/01/30 09:06:47;;;;;;;23.52;12.32;;;;;;;5.87;66.94;102990.94;5085037;28;20925;-77
2024/01/30 09:09:14;;;;;;;24.42;12.70;;;;;;;5.96;66.58;102982.69;5083668;28;20055;-73
2024/01/30 09:11:40;;;;;;;20.58;12.27;;;;;;;5.85;65.87;102969.59;5090629;28;20082;-72
2024/01/30 09:14:06;;;;;;;42.35;14.52;;;;;;;5.93;65.47;102980.09;5074844;28;20139;-75
2024/01/30 09:16:31;;;;;;;24.48;13.18;;;;;;;5.83;65.65;102954.50;5090088;28;20028;-74
2024/01/30 09:18:57;;;;;;;29.35;16.13;;;;;;;5.94;65.26;102966.69;5090308;28;20027;-78
2024/01/30 09:21:23;;;;;;;22.67;11.98;;;;;;;5.97;65.38;102981.75;5074417;28;20031;-74
2024/01/30 09:23:48;;;;;;;26.02;12.48;;;;;;;5.72;65.27;102957.41;5106862;28;20043;-75
2024/01/30 09:26:14;;;;;;;26.52;11.38;;;;;;;5.81;65.28;102959.00;5110942;28;20088;-76
2024/01/30 09:28:42;;;;;;;24.80;13.27;;;;;;;5.88;65.36;102960.63;5082173;28;20027;-81
2024/01/30 09:31:11;;;;;;;30.98;13.50;;;;;;;6.00;65.66;102960.31;5088690;28;20082;-76
2024/01/30 09:33:37;;;;;;;43.97;13.93;;;;;;;5.62;64.96;102875.81;5090511;28;20028;-76
2024/01/30 09:36:02;;;;;;;34.42;13.05;;;;;;;6.13;64.32;102939.50;5077318;28;20044;-76
2024/01/30 09:38:28;;;;;;;44.13;14.95;;;;;;;6.12;64.40;102941.31;5090877;28;20060;-78
2024/01/30 09:40:56;;;;;;;22.80;11.35;;;;;;;6.30;64.38;102966.69;5090875;28;20036;-76
2024/01/30 09:43:23;;;;;;;25.33;12.60;;;;;;;6.04;64.43;102908.56;5083214;28;20047;-81
2024/01/30 09:45:54;;;;;;;32.63;12.68;;;;;;;6.39;64.53;102956.59;5088090;28;20106;-73
2024/01/30 09:48:20;;;;;;;26.58;13.55;;;;;;;6.44;64.37;102951.16;5047812;28;20043;-75
2024/01/30 09:50:46;;;;;;;21.02;11.45;;;;;;;6.58;64.68;102963.22;5060739;28;20035;-80
2024/01/30 09:53:14;;;;;;;25.45;13.02;;;;;;;6.55;63.74;102965.97;5101136;28;20142;-78
2024/01/30 09:55:43;;;;;;;27.67;13.00;;;;;;;6.62;63.65;102950.63;5083794;28;20028;-80
2024/01/30 09:58:08;;;;;;;29.27;13.70;;;;;;;6.73;62.84;102947.69;5068525;28;20434;-76
2024/01/30 10:00:34;;;;;;;35.40;13.57;;;;;;;6.66;63.27;102928.25;5089397;28;20032;-78
2024/01/30 10:03:00;;;;;;;32.45;11.88;;;;;;;6.79;62.90;102947.50;5074104;28;20741;-76
2024/01/30 10:06:09;;;;;;;22.23;12.15;;;;;;;6.73;62.85;102936.97;5089725;28;20028;-75
2024/01/30 10:08:34;;;;;;;24.52;12.13;;;;;;;6.65;62.80;102930.94;5046655;28;20410;-76
2024/01/30 10:11:01;;;;;;;20.73;10.65;;;;;;;6.40;62.49;102918.28;5013906;28;20159;-76
2024/01/30 10:13:27;;;;;;;20.48;11.20;;;;;;;6.53;62.92;102941.09;5046699;28;20524;-76
2024/01/30 10:15:53;;;;;;;23.50;11.15;;;;;;;6.50;62.96;102937.63;5044485;28;20037;-81
2024/01/30 10:18:18;;;;;;;22.42;12.98;;;;;;;6.33;63.22;102883.75;5044614;28;20056;-74
2024/01/30 10:20:44;;;;;;;33.13;12.23;;;;;;;6.52;62.76;102901.88;5066498;28;20028;-77
2024/01/30 10:23:09;;;;;;;29.00;11.75;;;;;;;6.65;62.76;102922.94;5055302;28;20088;-79
2024/01/30 10:25:35;;;;;;;26.27;11.32;;;;;;;6.58;62.55;102904.38;5039060;28;20063;-77
2024/01/30 10:28:01;;;;;;;20.30;10.98;;;;;;;6.73;61.75;102921.78;5046475;28;20040;-79
2024/01/30 10:30:27;;;;;;;30.23;13.00;;;;;;;6.74;61.94;102922.66;5038075;28;20906;-80
2024/01/30 10:32:53;;;;;;;24.42;11.93;;;;;;;6.73;62.45;102912.91;5049555;28;20062;-75
2024/01/30 10:35:19;;;;;;;26.15;11.98;;;;;;;6.74;62.31;102922.66;5069111;28;20059;-77
2024/01/30 10:37:47;;;;;;;26.55;11.80;;;;;;;6.81;61.78;102938.50;5068157;28;20056;-75
2024/01/30 10:40:14;;;;;;;24.75;11.70;;;;;;;6.80;62.33;102930.50;5092010;28;20460;-76
2024/01/30 10:42:43;;;;;;;27.17;12.48;;;;;;;6.64;62.58;102932.75;5060556;28;20036;-75
2024/01/30 10:45:15;;;;;;;25.77;12.63;;;;;;;6.49;63.02;102901.09;5070673;28;20587;-75
2024/01/30 10:47:44;;;;;;;24.15;12.32;;;;;;;6.53;62.41;102930.38;5047577;28;20040;-75
2024/01/30 10:50:10;;;;;;;20.70;11.57;;;;;;;6.55;62.71;102923.19;5088799;28;20124;-76
2024/01/30 10:52:36;;;;;;;23.10;11.30;;;;;;;6.54;62.78;102920.56;5089113;28;20028;-78
2024/01/30 10:55:05;;;;;;;24.33;10.52;;;;;;;6.67;62.80;102915.72;5089277;28;20028;-76
2024/01/30 10:57:33;;;;;;;30.30;10.63;;;;;;;6.76;61.96;102910.16;5088048;28;20028;-75
2024/01/30 11:00:01;;;;;;;27.58;12.00;;;;;;;6.70;61.63;102904.94;5089151;28;20039;-74
2024/01/30 11:02:27;;;;;;;22.48;11.77;;;;;;;6.74;61.59;102895.91;5088131;28;20083;-78
2024/01/30 11:05:00;;;;;;;25.30;10.80;;;;;;;6.77;60.54;102912.75;5088982;28;20510;-75
2024/01/30 11:07:28;;;;;;;29.25;11.77;;;;;;;6.68;61.12;102906.78;5088796;28;20028;-77
2024/01/30 11:10:01;;;;;;;28.63;12.23;;;;;;;6.72;61.10;102898.66;5069378;28;20036;-76
2024/01/30 11:12:28;;;;;;;20.05;11.75;;;;;;;6.80;61.50;102890.38;5088517;28;20122;-76